Time;durP1;ratioP1;P1;durP2;ratioP2;P2;SDS_P1;SDS_P2;PMS_P1;PMS_P2;Temp;Humidity;BMP_temperature;BMP_pressure;BME280_temperature;BME280_humidity;BME280_pressure;Samples;Min_cycle;Max_cycle;Signal;HPM_P1;HPM_P2
2022/09/03 00:02:30;;;;;;;0.00;0.00;;;16.60;79.90;;;;;;5000491;28;20624;-78
2022/09/03 00:05:24;;;;;;;0.00;0.00;;;16.50;81.10;;;;;;5000485;28;20038;-78
2022/09/03 00:08:02;;;;;;;0.00;0.00;;;16.50;80.60;;;;;;5000535;28;20048;-78
2022/09/03 00:10:35;;;;;;;0.00;0.00;;;16.50;80.60;;;;;;5000384;28;20057;-78
2022/09/03 00:13:04;;;;;;;0.00;0.00;;;16.50;81.50;;;;;;5032029;28;20681;-77
2022/09/03 00:15:32;;;;;;;0.00;0.00;;;16.40;81.00;;;;;;4999264;28;20216;-78
2022/09/03 00:18:06;;;;;;;0.00;0.00;;;16.40;80.40;;;;;;5016758;28;20136;-77
2022/09/03 00:20:52;;;;;;;0.00;0.00;;;16.40;80.30;;;;;;5000189;28;20103;-77
2022/09/03 00:23:27;;;;;;;0.00;0.00;;;16.40;81.30;;;;;;4999724;28;20096;-77
2022/09/03 00:26:24;;;;;;;0.00;0.00;;;16.30;79.90;;;;;;5000185;28;20049;-77
2022/09/03 00:29:02;;;;;;;0.00;0.00;;;16.30;80.90;;;;;;5015313;28;20060;-77
2022/09/03 00:31:53;;;;;;;0.00;0.00;;;16.20;81.00;;;;;;4999729;28;20045;-77
2022/09/03 00:34:48;;;;;;;0.00;0.00;;;16.20;81.90;;;;;;4999544;28;20038;-78
2022/09/03 00:37:14;;;;;;;0.00;0.00;;;16.10;81.70;;;;;;5092137;28;20056;-78
2022/09/03 00:39:40;;;;;;;0.00;0.00;;;16.00;81.70;;;;;;5093821;28;20044;-77
2022/09/03 00:42:17;;;;;;;0.00;0.00;;;16.00;82.00;;;;;;5076492;28;20125;-77
2022/09/03 00:45:05;;;;;;;0.00;0.00;;;16.00;81.60;;;;;;5093886;28;20044;-77
2022/09/03 00:47:36;;;;;;;0.00;0.00;;;15.90;82.60;;;;;;5075907;28;20529;-78
2022/09/03 00:50:06;;;;;;;0.00;0.00;;;15.90;82.80;;;;;;5093179;28;20081;-77
2022/09/03 00:53:25;;;;;;;0.00;0.00;;;15.90;83.00;;;;;;5076589;28;20511;-78
2022/09/03 00:56:33;;;;;;;0.13;0.00;;;15.80;84.80;;;;;;5032464;28;20433;-77
2022/09/03 00:59:15;;;;;;;0.00;0.00;;;15.80;82.60;;;;;;4954189;29;20058;-78
2022/09/03 01:02:22;;;;;;;0.00;0.00;;;15.70;83.90;;;;;;4938300;29;20051;-77
2022/09/03 01:05:22;;;;;;;0.00;0.00;;;15.70;83.30;;;;;;4900212;29;20094;-77
2022/09/03 01:08:17;;;;;;;0.10;0.00;;;15.70;83.30;;;;;;4900332;29;20063;-77
2022/09/03 01:10:57;;;;;;;0.00;0.00;;;15.70;84.30;;;;;;4900477;29;20048;-77
2022/09/03 01:13:29;;;;;;;0.00;0.00;;;15.60;84.80;;;;;;4900102;29;20625;-77
2022/09/03 01:16:20;;;;;;;0.00;0.00;;;15.60;85.50;;;;;;4899997;29;20432;-77
2022/09/03 01:19:10;;;;;;;0.00;0.00;;;15.60;85.50;;;;;;4899909;29;20060;-77
2022/09/03 01:21:41;;;;;;;0.00;0.00;;;15.60;83.90;;;;;;4900000;29;20452;-77
2022/09/03 01:24:28;;;;;;;0.00;0.00;;;15.60;84.80;;;;;;4899786;29;20056;-77
2022/09/03 01:27:15;;;;;;;0.00;0.00;;;15.60;85.00;;;;;;4899843;29;20056;-77
2022/09/03 01:30:16;;;;;;;0.00;0.00;;;15.60;86.00;;;;;;4932047;28;20058;-77
2022/09/03 01:33:03;;;;;;;0.00;0.00;;;15.50;87.30;;;;;;4982661;28;20065;-77
2022/09/03 01:35:37;;;;;;;0.00;0.00;;;15.60;85.50;;;;;;4998350;28;20053;-77
2022/09/03 01:38:06;;;;;;;0.05;0.05;;;15.50;85.70;;;;;;5015478;28;20060;-77
2022/09/03 01:42:14;;;;;;;0.00;0.00;;;15.50;85.00;;;;;;4998844;28;20061;-77
2022/09/03 01:44:00;;;;;;;0.00;0.00;;;15.50;86.40;;;;;;5014999;28;20053;-77
2022/09/03 01:46:34;;;;;;;0.00;0.00;;;15.50;87.50;;;;;;4998933;28;20045;-77
2022/09/03 01:49:27;;;;;;;0.00;0.00;;;15.50;86.20;;;;;;4998500;28;20501;-77
2022/09/03 01:52:10;;;;;;;0.00;0.00;;;15.50;85.90;;;;;;5031659;28;20089;-77
2022/09/03 01:55:17;;;;;;;0.00;0.00;;;15.50;86.00;;;;;;5030656;28;20428;-77
2022/09/03 01:58:09;;;;;;;0.00;0.00;;;15.50;86.40;;;;;;5031696;28;20390;-77
2022/09/03 02:00:39;;;;;;;0.10;0.10;;;15.50;86.90;;;;;;5011002;28;20472;-77
2022/09/03 02:03:06;;;;;;;0.08;0.00;;;15.40;86.80;;;;;;5031449;28;20505;-78
2022/09/03 02:05:33;;;;;;;0.00;0.00;;;15.50;86.90;;;;;;4998793;28;20045;-78
2022/09/03 02:08:02;;;;;;;0.00;0.00;;;15.50;86.20;;;;;;4998516;28;20061;-79
2022/09/03 02:10:49;;;;;;;0.00;0.00;;;15.50;86.00;;;;;;5015309;28;20104;-78
2022/09/03 02:13:20;;;;;;;0.00;0.00;;;15.50;88.30;;;;;;4998625;28;20533;-78
2022/09/03 02:15:49;;;;;;;0.00;0.00;;;15.50;89.40;;;;;;4998350;28;20468;-78
2022/09/03 02:18:21;;;;;;;0.00;0.00;;;15.50;88.10;;;;;;5014894;28;20045;-78
2022/09/03 02:20:48;;;;;;;0.00;0.00;;;15.50;87.20;;;;;;5044801;28;20381;-78
2022/09/03 02:23:15;;;;;;;0.00;0.00;;;15.50;87.30;;;;;;5092422;28;20050;-78
2022/09/03 02:25:45;;;;;;;0.00;0.00;;;15.50;87.60;;;;;;5075338;28;20044;-78
2022/09/03 02:28:12;;;;;;;0.00;0.00;;;15.50;86.40;;;;;;5075524;28;20477;-78
2022/09/03 02:30:38;;;;;;;0.00;0.00;;;15.50;88.20;;;;;;5092260;28;20135;-78
2022/09/03 02:33:04;;;;;;;0.00;0.00;;;15.50;87.20;;;;;;5076127;28;20147;-78
2022/09/03 02:35:30;;;;;;;0.00;0.00;;;15.50;87.90;;;;;;5092166;28;20047;-78
2022/09/03 02:37:55;;;;;;;0.00;0.00;;;15.50;88.90;;;;;;5078033;28;20048;-78
2022/09/03 02:40:21;;;;;;;0.00;0.00;;;15.50;87.10;;;;;;5079191;28;20079;-78
2022/09/03 02:42:48;;;;;;;0.00;0.00;;;15.40;87.50;;;;;;5079051;28;20553;-78
2022/09/03 02:45:30;;;;;;;0.00;0.00;;;15.40;87.10;;;;;;5095871;28;20132;-78
2022/09/03 02:47:59;;;;;;;0.00;0.00;;;15.50;88.20;;;;;;5095884;28;20055;-78
2022/09/03 02:50:25;;;;;;;0.00;0.00;;;15.40;88.40;;;;;;5095859;28;20044;-78
2022/09/03 02:52:51;;;;;;;0.00;0.00;;;15.50;88.10;;;;;;5078937;28;20047;-78
2022/09/03 02:55:18;;;;;;;0.00;0.00;;;15.50;87.60;;;;;;5095481;28;20040;-78
2022/09/03 02:57:44;;;;;;;0.00;0.00;;;15.50;88.70;;;;;;5078797;28;20062;-78
2022/09/03 03:00:11;;;;;;;0.00;0.00;;;15.40;88.50;;;;;;5095283;28;20056;-78
2022/09/03 03:02:37;;;;;;;0.00;0.00;;;15.40;89.00;;;;;;5095496;28;20089;-78
2022/09/03 03:05:03;;;;;;;0.00;0.00;;;15.40;88.00;;;;;;5095676;28;20044;-78
2022/09/03 03:07:36;;;;;;;0.00;0.00;;;15.50;88.10;;;;;;5078754;28;20130;-78
2022/09/03 03:10:02;;;;;;;0.00;0.00;;;15.50;89.90;;;;;;5078229;28;20056;-78
2022/09/03 03:12:30;;;;;;;0.00;0.00;;;15.40;88.10;;;;;;5078462;28;20484;-78
2022/09/03 03:14:56;;;;;;;0.00;0.00;;;15.40;88.90;;;;;;5078235;28;20056;-78
2022/09/03 03:17:21;;;;;;;0.00;0.00;;;15.40;88.20;;;;;;5078021;28;20411;-78
2022/09/03 03:19:48;;;;;;;0.00;0.00;;;15.40;87.80;;;;;;5078419;28;20098;-78
2022/09/03 03:22:13;;;;;;;0.00;0.00;;;15.30;89.10;;;;;;5095232;28;20079;-78
2022/09/03 03:24:39;;;;;;;0.00;0.00;;;15.20;89.10;;;;;;5095105;28;20090;-78
2022/09/03 03:27:07;;;;;;;0.00;0.00;;;15.30;88.60;;;;;;5095059;28;20047;-78
2022/09/03 03:29:32;;;;;;;0.00;0.00;;;15.20;89.50;;;;;;5078206;28;20056;-78
2022/09/03 03:31:58;;;;;;;0.00;0.00;;;15.20;90.10;;;;;;5078210;28;20521;-78
2022/09/03 03:34:24;;;;;;;0.20;0.00;;;15.20;90.00;;;;;;5094869;28;20079;-78
2022/09/03 03:36:49;;;;;;;0.00;0.00;;;15.10;90.00;;;;;;5078325;28;20048;-78
2022/09/03 03:39:15;;;;;;;0.00;0.00;;;15.10;90.70;;;;;;5077896;28;20075;-78
2022/09/03 03:41:41;;;;;;;0.00;0.00;;;15.00;89.80;;;;;;5094745;28;20036;-78
2022/09/03 03:44:07;;;;;;;0.00;0.00;;;15.00;90.30;;;;;;5094797;28;20066;-78
2022/09/03 03:46:36;;;;;;;0.00;0.00;;;14.90;90.40;;;;;;5078003;28;20039;-78
2022/09/03 03:49:02;;;;;;;0.00;0.00;;;14.90;89.70;;;;;;5094340;28;20495;-78
2022/09/03 03:51:29;;;;;;;0.00;0.00;;;14.90;90.00;;;;;;5077799;28;20138;-77
2022/09/03 03:53:56;;;;;;;0.00;0.00;;;14.80;90.50;;;;;;5094481;28;20408;-78
2022/09/03 03:56:23;;;;;;;0.00;0.00;;;14.80;91.00;;;;;;5094553;28;20377;-78
2022/09/03 03:58:49;;;;;;;0.00;0.00;;;14.80;90.40;;;;;;5077647;28;20479;-78
2022/09/03 04:01:23;;;;;;;0.00;0.00;;;14.70;90.30;;;;;;5077143;28;20062;-78
2022/09/03 04:03:50;;;;;;;0.00;0.00;;;14.70;90.80;;;;;;5077622;28;20494;-78
2022/09/03 04:06:18;;;;;;;0.00;0.00;;;14.70;91.40;;;;;;5077320;28;20556;-78
2022/09/03 04:08:46;;;;;;;0.00;0.00;;;14.60;91.10;;;;;;5077360;28;20044;-77
2022/09/03 04:11:17;;;;;;;0.00;0.00;;;14.60;90.90;;;;;;5077445;28;20468;-77
2022/09/03 04:13:43;;;;;;;0.00;0.00;;;14.60;91.00;;;;;;5077415;28;20051;-78
2022/09/03 04:16:21;;;;;;;0.00;0.00;;;14.50;90.70;;;;;;5077094;28;20083;-77
2022/09/03 04:18:48;;;;;;;0.00;0.00;;;14.60;91.00;;;;;;5077464;28;20073;-78
2022/09/03 04:21:16;;;;;;;0.00;0.00;;;14.50;91.20;;;;;;5093930;28;20048;-78
2022/09/03 04:23:44;;;;;;;0.00;0.00;;;14.50;91.30;;;;;;5093711;28;20392;-77
2022/09/03 04:26:11;;;;;;;0.00;0.00;;;14.50;91.50;;;;;;5077542;28;20040;-78
2022/09/03 04:28:37;;;;;;;0.00;0.00;;;14.40;91.70;;;;;;5077022;28;20040;-78
2022/09/03 04:31:05;;;;;;;0.00;0.00;;;14.40;91.80;;;;;;5094089;28;20043;-78
2022/09/03 04:33:32;;;;;;;0.10;0.10;;;14.40;91.80;;;;;;5076940;28;20376;-77
2022/09/03 04:36:19;;;;;;;0.00;0.00;;;14.30;91.90;;;;;;5093665;28;20624;-77
2022/09/03 04:38:46;;;;;;;0.00;0.00;;;14.40;91.60;;;;;;5093885;28;20048;-77
2022/09/03 04:41:14;;;;;;;0.00;0.00;;;14.30;92.40;;;;;;5076698;28;20055;-77
2022/09/03 04:43:43;;;;;;;0.13;0.13;;;14.30;92.20;;;;;;5077019;28;20138;-77
2022/09/03 04:46:11;;;;;;;0.00;0.00;;;14.30;92.20;;;;;;5076664;28;20168;-78
2022/09/03 04:48:36;;;;;;;0.00;0.00;;;14.30;92.10;;;;;;5076648;28;20442;-78
2022/09/03 04:51:08;;;;;;;0.00;0.00;;;14.30;92.10;;;;;;5093488;28;20052;-78
2022/09/03 04:53:36;;;;;;;0.00;0.00;;;14.30;92.10;;;;;;5076618;28;20495;-78
2022/09/03 04:56:03;;;;;;;0.00;0.00;;;14.30;93.20;;;;;;5075891;28;20067;-77
2022/09/03 04:58:28;;;;;;;0.00;0.00;;;14.30;92.50;;;;;;5093171;28;20044;-78
2022/09/03 05:00:55;;;;;;;0.00;0.00;;;14.30;92.80;;;;;;5092805;28;20450;-77
2022/09/03 05:03:21;;;;;;;0.00;0.00;;;14.30;92.60;;;;;;5076235;28;20044;-78
2022/09/03 05:05:54;;;;;;;0.00;0.00;;;14.30;92.60;;;;;;5093208;28;20408;-78
2022/09/03 05:08:21;;;;;;;0.00;0.00;;;14.30;93.00;;;;;;5076265;28;20074;-78
2022/09/03 05:10:48;;;;;;;0.00;0.00;;;14.30;93.20;;;;;;5093261;28;20121;-78
2022/09/03 05:13:13;;;;;;;0.00;0.00;;;14.30;92.80;;;;;;5093108;28;20051;-79
2022/09/03 05:15:41;;;;;;;0.00;0.00;;;14.30;92.90;;;;;;5100891;28;20039;-76
2022/09/03 05:18:06;;;;;;;0.05;0.05;;;14.30;93.20;;;;;;5095317;28;20138;-79
2022/09/03 05:20:32;;;;;;;0.00;0.00;;;14.30;93.30;;;;;;5113708;28;20075;-78
2022/09/03 05:23:04;;;;;;;0.00;0.00;;;14.40;93.10;;;;;;5096433;28;20051;-79
2022/09/03 05:25:33;;;;;;;0.00;0.00;;;14.40;93.40;;;;;;5113395;28;20051;-79
2022/09/03 05:28:00;;;;;;;0.00;0.00;;;14.40;93.50;;;;;;5113286;28;20048;-79
2022/09/03 05:30:26;;;;;;;0.00;0.00;;;14.40;93.50;;;;;;5113976;28;20051;-76
2022/09/03 05:32:52;;;;;;;0.00;0.00;;;14.50;93.50;;;;;;5113412;28;20078;-77
2022/09/03 05:35:18;;;;;;;0.00;0.00;;;14.50;93.50;;;;;;5095995;28;20044;-77
2022/09/03 05:37:44;;;;;;;0.00;0.00;;;14.50;93.40;;;;;;5113149;28;20036;-76
2022/09/03 05:40:10;;;;;;;0.00;0.00;;;14.60;93.30;;;;;;5096188;28;20039;-76
2022/09/03 05:42:37;;;;;;;0.00;0.00;;;14.60;93.10;;;;;;5113081;28;20099;-77
2022/09/03 05:45:09;;;;;;;0.00;0.00;;;14.60;93.30;;;;;;5095704;28;20056;-76
2022/09/03 05:47:38;;;;;;;0.13;0.13;;;14.70;93.30;;;;;;5113011;28;20518;-76
2022/09/03 05:50:05;;;;;;;0.00;0.00;;;14.70;93.40;;;;;;5096215;28;20049;-76
2022/09/03 05:52:30;;;;;;;0.00;0.00;;;14.80;93.20;;;;;;5096049;28;20130;-76
2022/09/03 05:54:56;;;;;;;0.00;0.00;;;14.80;93.20;;;;;;5112767;28;20135;-76
2022/09/03 05:57:22;;;;;;;0.00;0.00;;;14.80;93.20;;;;;;5113038;28;20048;-77
2022/09/03 05:59:48;;;;;;;0.00;0.00;;;14.90;93.40;;;;;;5095723;28;20098;-76
2022/09/03 06:02:13;;;;;;;0.00;0.00;;;15.00;93.40;;;;;;5113158;28;20043;-76
2022/09/03 06:04:39;;;;;;;0.00;0.00;;;14.90;93.40;;;;;;5112931;28;20051;-76
2022/09/03 06:07:04;;;;;;;0.00;0.00;;;14.90;93.50;;;;;;5095626;28;20055;-76
2022/09/03 06:09:30;;;;;;;0.00;0.00;;;14.80;93.20;;;;;;5095804;28;20094;-76
2022/09/03 06:11:55;;;;;;;0.00;0.00;;;14.80;93.70;;;;;;5097977;28;20552;-77
2022/09/03 06:14:22;;;;;;;0.00;0.00;;;14.80;93.80;;;;;;5116888;28;20495;-76
2022/09/03 06:16:49;;;;;;;0.00;0.00;;;14.80;94.30;;;;;;5117002;28;20134;-77
2022/09/03 06:19:15;;;;;;;0.00;0.00;;;14.80;94.10;;;;;;5117057;28;20040;-77
2022/09/03 06:21:43;;;;;;;0.00;0.00;;;14.80;94.00;;;;;;5099700;28;20048;-76
2022/09/03 06:24:17;;;;;;;26.58;1.25;;;14.90;93.80;;;;;;5116657;28;20066;-78
2022/09/03 06:26:44;;;;;;;0.00;0.00;;;14.90;94.10;;;;;;5116744;28;20585;-76
2022/09/03 06:29:10;;;;;;;0.00;0.00;;;14.90;94.10;;;;;;5099732;28;20051;-76
2022/09/03 06:31:36;;;;;;;0.17;0.13;;;14.90;94.00;;;;;;5116681;28;20071;-77
2022/09/03 06:34:02;;;;;;;0.00;0.00;;;14.90;94.10;;;;;;5099442;28;20498;-77
2022/09/03 06:36:28;;;;;;;0.00;0.00;;;15.00;94.50;;;;;;5116516;28;20044;-77
2022/09/03 06:38:55;;;;;;;0.88;0.10;;;15.00;94.50;;;;;;5099101;28;20116;-78
2022/09/03 06:41:26;;;;;;;0.00;0.00;;;15.10;94.60;;;;;;5099587;28;20117;-77
2022/09/03 06:43:56;;;;;;;0.00;0.00;;;15.10;94.40;;;;;;5116849;28;20040;-77
2022/09/03 06:46:22;;;;;;;0.00;0.00;;;15.20;94.20;;;;;;5099055;28;20491;-77
2022/09/03 06:48:50;;;;;;;0.13;0.00;;;15.20;94.80;;;;;;5099441;28;20039;-77
2022/09/03 06:51:24;;;;;;;0.00;0.00;;;15.30;94.70;;;;;;5116179;28;20044;-76
2022/09/03 06:53:56;;;;;;;0.00;0.00;;;15.40;94.30;;;;;;5099722;28;20055;-77
2022/09/03 06:56:26;;;;;;;0.00;0.00;;;15.60;94.40;;;;;;5099025;28;20085;-77
2022/09/03 06:58:54;;;;;;;0.00;0.00;;;15.90;94.70;;;;;;5116239;28;20087;-78
2022/09/03 07:01:22;;;;;;;0.00;0.00;;;16.80;93.90;;;;;;5098075;28;20047;-77
2022/09/03 07:03:54;;;;;;;1.40;0.30;;;17.50;92.50;;;;;;5098875;28;20059;-77
2022/09/03 07:06:21;;;;;;;0.00;0.00;;;17.80;90.50;;;;;;5116710;28;20035;-77
2022/09/03 07:08:47;;;;;;;0.00;0.00;;;17.90;90.10;;;;;;5098798;28;20098;-78
2022/09/03 07:11:15;;;;;;;0.05;0.03;;;17.80;90.30;;;;;;5115865;28;20075;-78
2022/09/03 07:13:44;;;;;;;0.20;0.20;;;17.80;91.00;;;;;;5115432;28;20124;-78
2022/09/03 07:16:18;;;;;;;0.00;0.00;;;17.90;90.80;;;;;;5098772;28;20047;-78
2022/09/03 07:18:45;;;;;;;0.00;0.00;;;18.00;90.10;;;;;;5116061;28;20048;-78
2022/09/03 07:21:16;;;;;;;0.00;0.00;;;18.10;90.30;;;;;;5115752;28;20483;-78
2022/09/03 07:23:43;;;;;;;0.00;0.00;;;18.20;90.00;;;;;;5097508;28;20212;-77
2022/09/03 07:26:21;;;;;;;0.00;0.00;;;18.50;89.10;;;;;;5115570;28;20051;-78
2022/09/03 07:28:48;;;;;;;0.00;0.00;;;19.00;89.10;;;;;;5098547;28;20043;-78
2022/09/03 07:31:20;;;;;;;0.00;0.00;;;19.20;86.50;;;;;;5098463;28;20390;-78
2022/09/03 07:33:46;;;;;;;0.00;0.00;;;19.20;87.10;;;;;;5098878;28;20051;-77
2022/09/03 07:36:16;;;;;;;0.00;0.00;;;19.10;83.30;;;;;;5115194;28;20043;-78
2022/09/03 07:38:46;;;;;;;0.00;0.00;;;19.20;85.50;;;;;;5098577;28;20073;-79
2022/09/03 07:41:13;;;;;;;0.30;0.10;;;19.20;83.50;;;;;;5097948;28;20568;-77
2022/09/03 07:43:47;;;;;;;0.00;0.00;;;19.10;85.30;;;;;;5115278;28;20035;-78
2022/09/03 07:46:17;;;;;;;0.00;0.00;;;19.00;84.70;;;;;;5097836;28;20055;-77
2022/09/03 07:48:45;;;;;;;0.65;0.28;;;18.90;84.00;;;;;;5098212;28;20059;-77
2022/09/03 07:51:11;;;;;;;0.00;0.00;;;18.80;84.50;;;;;;5115274;28;20040;-78
2022/09/03 07:53:37;;;;;;;0.05;0.00;;;18.80;84.70;;;;;;5115146;28;20109;-78
2022/09/03 07:56:07;;;;;;;0.00;0.00;;;18.70;86.60;;;;;;5097553;28;20048;-77
2022/09/03 07:58:34;;;;;;;0.00;0.00;;;18.70;85.60;;;;;;5115113;28;20085;-77
2022/09/03 08:01:21;;;;;;;0.00;0.00;;;18.70;84.90;;;;;;5097552;28;20356;-77
2022/09/03 08:03:49;;;;;;;0.00;0.00;;;18.70;85.60;;;;;;5115211;28;20130;-77
2022/09/03 08:06:17;;;;;;;0.00;0.00;;;18.60;85.90;;;;;;5114461;28;20042;-78
2022/09/03 08:08:44;;;;;;;1.27;0.65;;;18.70;85.50;;;;;;5096697;28;20380;-77
2022/09/03 08:11:11;;;;;;;0.00;0.00;;;18.70;85.30;;;;;;5097419;28;20090;-77
2022/09/03 08:13:42;;;;;;;0.00;0.00;;;18.70;85.30;;;;;;5114875;28;20075;-78
2022/09/03 08:16:08;;;;;;;0.00;0.00;;;18.70;84.90;;;;;;5115644;28;20040;-78
2022/09/03 08:18:38;;;;;;;0.00;0.00;;;18.70;85.20;;;;;;5114755;28;20055;-77
2022/09/03 08:21:09;;;;;;;0.00;0.00;;;18.70;85.90;;;;;;5114810;28;20104;-78
2022/09/03 08:23:42;;;;;;;0.10;0.00;;;18.70;85.50;;;;;;5097844;28;20059;-78
2022/09/03 08:26:09;;;;;;;0.00;0.00;;;18.70;85.30;;;;;;5097488;28;20093;-78
2022/09/03 08:28:35;;;;;;;0.00;0.00;;;18.80;84.40;;;;;;5114564;28;20035;-78
2022/09/03 08:31:10;;;;;;;0.00;0.00;;;18.80;85.40;;;;;;5097411;28;20039;-77
2022/09/03 08:33:37;;;;;;;0.00;0.00;;;18.90;85.40;;;;;;5096461;28;20142;-78
2022/09/03 08:36:07;;;;;;;0.03;0.03;;;19.00;85.70;;;;;;5113829;28;20047;-78
2022/09/03 08:38:34;;;;;;;0.00;0.00;;;19.10;86.70;;;;;;5097108;28;20044;-78
2022/09/03 08:41:28;;;;;;;0.10;0.10;;;19.20;85.70;;;;;;5113552;28;20490;-78
2022/09/03 08:44:15;;;;;;;0.00;0.00;;;19.20;84.30;;;;;;5104126;28;20048;-78
2022/09/03 08:47:04;;;;;;;0.00;0.00;;;19.40;85.80;;;;;;5114130;28;20108;-77
2022/09/03 08:49:54;;;;;;;0.00;0.00;;;19.50;84.00;;;;;;5090778;28;20047;-77
2022/09/03 08:52:58;;;;;;;0.00;0.00;;;19.60;83.70;;;;;;5093555;28;20048;-78
2022/09/03 08:55:43;;;;;;;0.45;0.20;;;19.70;83.40;;;;;;5088728;28;20047;-77
2022/09/03 08:58:13;;;;;;;0.00;0.00;;;19.80;83.10;;;;;;5091634;28;20101;-78
2022/09/03 09:00:44;;;;;;;0.10;0.10;;;20.00;83.40;;;;;;5093288;28;20147;-77
2022/09/03 09:03:29;;;;;;;0.13;0.13;;;20.20;82.50;;;;;;5085237;28;20402;-78
2022/09/03 09:06:14;;;;;;;0.00;0.00;;;20.40;82.70;;;;;;5093296;28;20083;-78
2022/09/03 09:08:46;;;;;;;0.00;0.00;;;20.50;82.80;;;;;;5093376;28;20079;-78
2022/09/03 09:11:42;;;;;;;0.00;0.00;;;20.70;81.40;;;;;;5076452;28;20371;-79
2022/09/03 09:14:20;;;;;;;0.00;0.00;;;20.90;81.70;;;;;;5086036;28;20052;-78
2022/09/03 09:17:09;;;;;;;0.00;0.00;;;21.10;80.80;;;;;;5113465;28;20090;-78
2022/09/03 09:19:47;;;;;;;0.00;0.00;;;21.30;80.70;;;;;;5113742;28;20126;-77
2022/09/03 09:22:28;;;;;;;0.00;0.00;;;21.40;79.70;;;;;;5113555;28;20501;-78
2022/09/03 09:24:58;;;;;;;0.00;0.00;;;21.60;79.30;;;;;;5096670;28;20082;-78
2022/09/03 09:27:24;;;;;;;0.00;0.00;;;21.70;78.70;;;;;;5096374;28;20035;-78
2022/09/03 09:29:51;;;;;;;0.00;0.00;;;21.80;79.10;;;;;;5113538;28;20041;-78
2022/09/03 09:32:18;;;;;;;0.10;0.00;;;21.90;78.20;;;;;;5113368;28;20079;-78
2022/09/03 09:34:44;;;;;;;0.00;0.00;;;21.90;78.10;;;;;;5113081;28;20079;-75
2022/09/03 09:37:13;;;;;;;0.00;0.00;;;22.10;78.50;;;;;;5113405;28;20044;-81
2022/09/03 09:39:40;;;;;;;0.00;0.00;;;22.30;77.00;;;;;;5113471;28;20399;-79
2022/09/03 09:42:11;;;;;;;0.00;0.00;;;22.30;76.80;;;;;;5113269;28;20054;-81
2022/09/03 09:44:39;;;;;;;0.00;0.00;;;22.50;76.70;;;;;;5096246;28;20139;-80
2022/09/03 09:47:34;;;;;;;0.00;0.00;;;22.60;75.30;;;;;;5113087;28;20043;-83
2022/09/03 09:50:01;;;;;;;0.00;0.00;;;22.80;76.90;;;;;;5113040;28;20391;-81
2022/09/03 09:52:30;;;;;;;0.00;0.00;;;22.90;74.50;;;;;;5112886;28;20399;-82
2022/09/03 09:55:18;;;;;;;0.00;0.00;;;23.00;74.50;;;;;;5113524;28;20483;-80
2022/09/03 09:57:44;;;;;;;0.00;0.00;;;23.20;76.70;;;;;;5096225;28;20189;-80
2022/09/03 10:00:13;;;;;;;0.00;0.00;;;23.30;76.10;;;;;;5112678;28;20058;-80
2022/09/03 10:02:47;;;;;;;0.10;0.10;;;23.50;75.00;;;;;;5112963;28;20050;-80
2022/09/03 10:05:27;;;;;;;0.00;0.00;;;23.60;76.30;;;;;;5095942;28;20510;-80
2022/09/03 10:08:05;;;;;;;0.00;0.00;;;23.80;75.20;;;;;;5101938;28;20147;-81
2022/09/03 10:10:40;;;;;;;0.00;0.00;;;24.00;76.90;;;;;;5092369;28;20047;-81
2022/09/03 10:13:17;;;;;;;0.00;0.00;;;24.10;74.60;;;;;;5075448;28;20117;-82
2022/09/03 10:16:09;;;;;;;0.00;0.00;;;24.20;72.00;;;;;;5075684;28;20043;-81
2022/09/03 10:18:53;;;;;;;0.00;0.00;;;24.40;72.20;;;;;;5034802;28;20053;-82
2022/09/03 10:21:44;;;;;;;0.00;0.00;;;24.40;72.10;;;;;;5034494;28;20041;-82
2022/09/03 10:24:28;;;;;;;0.00;0.00;;;24.50;69.60;;;;;;5034726;28;20049;-83
2022/09/03 10:26:54;;;;;;;0.00;0.00;;;24.70;71.20;;;;;;5035275;28;20041;-84
2022/09/03 10:29:24;;;;;;;0.20;0.10;;;24.80;68.50;;;;;;5034729;28;20057;-84
2022/09/03 10:32:08;;;;;;;0.15;0.10;;;25.00;69.50;;;;;;5018395;28;20044;-86
2022/09/03 10:35:11;;;;;;;0.00;0.00;;;25.00;69.10;;;;;;5033253;28;20049;-85
2022/09/03 10:37:46;;;;;;;0.00;0.00;;;25.10;67.60;;;;;;5018666;28;20078;-78
2022/09/03 10:40:38;;;;;;;0.20;0.00;;;25.30;67.20;;;;;;5034736;28;20048;-78
2022/09/03 10:43:22;;;;;;;0.00;0.00;;;25.30;65.60;;;;;;5018599;28;20118;-77
2022/09/03 10:46:12;;;;;;;0.00;0.00;;;25.40;64.00;;;;;;5034102;28;20064;-78
2022/09/03 10:48:48;;;;;;;0.08;0.08;;;25.60;66.20;;;;;;5034397;28;20056;-78
2022/09/03 10:51:31;;;;;;;0.00;0.00;;;25.70;65.30;;;;;;5034386;28;20053;-78
2022/09/03 10:54:31;;;;;;;0.00;0.00;;;25.80;64.50;;;;;;5034273;28;20129;-82
2022/09/03 10:57:34;;;;;;;0.00;0.00;;;26.00;65.50;;;;;;5029511;28;20065;-79
2022/09/03 11:00:07;;;;;;;0.22;0.15;;;26.10;63.80;;;;;;5037508;28;20425;-78
2022/09/03 11:02:57;;;;;;;0.00;0.00;;;26.20;63.30;;;;;;5054598;28;20049;-79
2022/09/03 11:05:47;;;;;;;0.00;0.00;;;26.30;60.40;;;;;;5037168;28;20106;-79
2022/09/03 11:08:38;;;;;;;0.17;0.00;;;26.40;62.50;;;;;;5054320;28;20089;-79
2022/09/03 11:11:12;;;;;;;0.00;0.00;;;26.50;61.50;;;;;;5052877;28;20052;-78
2022/09/03 11:13:45;;;;;;;0.00;0.00;;;26.60;60.60;;;;;;5037140;28;20060;-79
2022/09/03 11:16:14;;;;;;;0.00;0.00;;;26.70;61.80;;;;;;5037210;28;20143;-79
2022/09/03 11:18:42;;;;;;;0.10;0.00;;;26.80;61.60;;;;;;5037403;28;20058;-79
2022/09/03 11:21:13;;;;;;;0.05;0.00;;;26.70;60.00;;;;;;5037000;28;20428;-80
2022/09/03 11:23:45;;;;;;;0.00;0.00;;;26.80;58.00;;;;;;5021021;28;20045;-79
2022/09/03 11:26:16;;;;;;;0.00;0.00;;;26.80;57.30;;;;;;5053733;28;20052;-79
2022/09/03 11:28:55;;;;;;;0.00;0.00;;;26.80;57.70;;;;;;5054007;28;20146;-80
2022/09/03 11:31:46;;;;;;;0.00;0.00;;;26.90;59.60;;;;;;5037564;28;20071;-78
2022/09/03 11:34:32;;;;;;;0.00;0.00;;;27.00;58.70;;;;;;4989670;28;20445;-80
2022/09/03 11:37:22;;;;;;;0.00;0.00;;;27.20;59.70;;;;;;4980602;28;20061;-79
2022/09/03 11:40:10;;;;;;;0.00;0.00;;;27.20;57.20;;;;;;4981364;28;20564;-80
2022/09/03 11:42:40;;;;;;;0.00;0.00;;;27.20;58.10;;;;;;4981593;28;20046;-80
2022/09/03 11:45:31;;;;;;;0.93;0.30;;;27.20;57.10;;;;;;4981266;28;20084;-80
2022/09/03 11:47:57;;;;;;;0.00;0.00;;;27.20;56.90;;;;;;4980071;28;20061;-80
2022/09/03 11:50:32;;;;;;;0.13;0.13;;;27.20;57.00;;;;;;4997662;28;20088;-80
2022/09/03 11:53:09;;;;;;;0.00;0.00;;;27.30;57.20;;;;;;4997694;28;20130;-80
2022/09/03 11:55:52;;;;;;;0.00;0.00;;;27.40;57.80;;;;;;4997143;28;20229;-80
2022/09/03 11:58:25;;;;;;;0.00;0.00;;;27.50;58.20;;;;;;4980773;28;20154;-80
2022/09/03 12:00:53;;;;;;;0.00;0.00;;;27.60;58.00;;;;;;4980932;28;20604;-79
2022/09/03 12:03:27;;;;;;;0.00;0.00;;;27.50;56.60;;;;;;4981194;28;20136;-80
2022/09/03 12:06:37;;;;;;;0.00;0.00;;;27.50;57.50;;;;;;4980437;28;20160;-80
2022/09/03 12:09:41;;;;;;;0.00;0.00;;;27.60;56.40;;;;;;4957924;28;20062;-80
2022/09/03 12:12:12;;;;;;;0.00;0.00;;;27.60;57.00;;;;;;4952210;28;20144;-80
2022/09/03 12:15:29;;;;;;;0.00;0.00;;;27.60;54.70;;;;;;4974321;28;20094;-81
2022/09/03 12:18:17;;;;;;;0.00;0.00;;;27.70;55.00;;;;;;4919964;29;20059;-81
2022/09/03 12:20:45;;;;;;;0.00;0.00;;;27.90;56.90;;;;;;4920472;29;20142;-80
2022/09/03 12:23:13;;;;;;;0.00;0.00;;;27.80;55.60;;;;;;4919879;29;20060;-81
2022/09/03 12:25:46;;;;;;;1.10;0.10;;;27.90;54.60;;;;;;4919827;29;20060;-79
2022/09/03 12:28:18;;;;;;;0.00;0.00;;;27.90;54.80;;;;;;4919647;29;20063;-81
2022/09/03 12:30:45;;;;;;;0.00;0.00;;;27.90;54.30;;;;;;4919437;29;20059;-78
2022/09/03 12:33:16;;;;;;;0.00;0.00;;;27.90;53.80;;;;;;4919704;29;20063;-80
2022/09/03 12:35:41;;;;;;;0.00;0.00;;;27.80;53.00;;;;;;4903479;29;20073;-81
2022/09/03 12:38:07;;;;;;;0.00;0.00;;;27.90;53.90;;;;;;4919436;29;20567;-80
2022/09/03 12:40:33;;;;;;;0.00;0.00;;;28.00;53.60;;;;;;4919437;29;20067;-80
2022/09/03 12:43:16;;;;;;;0.00;0.00;;;28.10;52.70;;;;;;4919230;29;20056;-80
2022/09/03 12:45:44;;;;;;;0.00;0.00;;;28.10;53.40;;;;;;4937739;29;20055;-80
2022/09/03 12:48:16;;;;;;;0.73;0.20;;;28.00;53.10;;;;;;4952674;28;20068;-79
2022/09/03 12:50:44;;;;;;;0.00;0.00;;;28.10;54.40;;;;;;5015940;28;20128;-80
2022/09/03 12:53:14;;;;;;;0.32;0.30;;;28.20;54.40;;;;;;5052580;28;20060;-80
2022/09/03 12:55:47;;;;;;;0.00;0.00;;;28.40;53.70;;;;;;5076064;28;20044;-80
2022/09/03 12:58:17;;;;;;;0.00;0.00;;;28.40;54.10;;;;;;5076689;28;20036;-80
2022/09/03 13:00:50;;;;;;;0.00;0.00;;;28.40;52.20;;;;;;5092625;28;20407;-81
2022/09/03 13:03:43;;;;;;;0.00;0.00;;;28.40;53.00;;;;;;5093058;28;20441;-80
2022/09/03 13:06:12;;;;;;;0.00;0.00;;;28.50;54.70;;;;;;5075727;28;20523;-80
2022/09/03 13:08:55;;;;;;;0.00;0.00;;;28.50;53.60;;;;;;5076254;28;20058;-82
2022/09/03 13:11:23;;;;;;;0.17;0.17;;;28.70;54.40;;;;;;5093328;28;20043;-82
2022/09/03 13:14:10;;;;;;;0.00;0.00;;;28.70;54.00;;;;;;5076156;28;20048;-80
2022/09/03 13:16:50;;;;;;;0.00;0.00;;;28.80;54.40;;;;;;5092826;28;20051;-80
2022/09/03 13:19:42;;;;;;;0.00;0.00;;;28.70;53.30;;;;;;5076327;28;20059;-81
2022/09/03 13:22:32;;;;;;;0.00;0.00;;;28.70;52.20;;;;;;5092939;28;20101;-80
2022/09/03 13:25:12;;;;;;;0.00;0.00;;;28.70;51.70;;;;;;5092663;28;20055;-79